Jawor — C6YH8 — position and weather

sailwx.info

Track history (hours):
 
Tides and Currents Weather Stations Pressure Air Temp Water Temp Dewpoint Dewpoint Depression Visibility Wind Speed Wind Dir Waves Ship Positions

Jawor

Last reported at 2016-May-01 08:33 UTC. Time now 2016-May-03 16:24 UTC.
Position N 36°02' W 005°14'.

Length 229 m; draft 12.8 m.

Type: Cargo ship. MMSI: 311034100.

Date/timePositionNaut miles runAvg speedWind from/ knotsBaromVisibWave heightAir tempDewpointWater temp
2016-May-01 08:33N 36°02' W 005°14'9 8.7
2016-May-01 07:30N 36°08' W 005°22'0 0.1
2016-May-01 06:11N 36°07' W 005°23'0 0.0
2016-May-01 04:26N 36°07' W 005°22'0 0.1
2016-May-01 02:29N 36°07' W 005°22'4 0.9
2016-Apr-30 21:32N 36°03' W 005°20'8 8.6
2016-Apr-30 20:33N 35°58' W 005°28'22510.5
2016-Apr-29 23:04N 37°30' W 009°45'611.7
2016-Apr-29 22:33N 37°36' W 009°46'1211.9
2016-Apr-29 21:33N 37°48' W 009°49'1211.8
2016-Apr-29 20:33N 37°59' W 009°53'1211.8
2016-Apr-29 19:33N 38°11' W 009°56'1211.5
2016-Apr-29 18:31N 38°22' W 010°00'1211.8
2016-Apr-29 17:33N 38°33' W 010°04'1211.9
2016-Apr-29 16:33N 38°45' W 010°07'1211.8
2016-Apr-29 15:32N 38°57' W 010°06'1111.5
2016-Apr-29 14:33N 39°08' W 010°06'  
2016-Apr-27 06:33N 46°06' W 001°52'1110.8
2016-Apr-27 05:33N 46°07' W 001°36'1110.5
2016-Apr-27 04:33N 46°06' W 001°21'6 5.7
2016-Apr-27 03:33N 46°09' W 001°14'1 0.5
2016-Apr-27 02:33N 46°10' W 001°14'0 0.0
2016-Apr-27 01:33N 46°10' W 001°14'0 0.0
2016-Apr-27 00:24N 46°10' W 001°14'0 0.0
2016-Apr-26 23:33N 46°10' W 001°14'0 0.0
2016-Apr-26 22:33N 46°10' W 001°14'0 0.0
2016-Apr-26 21:33N 46°10' W 001°14'0 0.0
2016-Apr-26 20:30N 46°10' W 001°14'0 0.0
2016-Apr-26 19:33N 46°10' W 001°14'0 0.0
2016-Apr-26 18:33N 46°10' W 001°14'0 0.0
2016-Apr-26 17:33N 46°10' W 001°14'0 0.0
2016-Apr-26 16:33N 46°10' W 001°14'0 0.0
2016-Apr-26 15:33N 46°10' W 001°14'0 0.0
2016-Apr-26 14:33N 46°10' W 001°14'0 0.0
2016-Apr-26 13:33N 46°10' W 001°14'0 0.0
2016-Apr-26 12:33N 46°10' W 001°14'0 0.0
2016-Apr-26 11:33N 46°10' W 001°14'0 0.0
2016-Apr-26 10:33N 46°10' W 001°14'0 0.0
2016-Apr-26 09:33N 46°10' W 001°14'0 0.0
2016-Apr-26 08:33N 46°10' W 001°14'0 0.0
2016-Apr-26 07:33N 46°10' W 001°14'0 0.0
2016-Apr-26 06:33N 46°10' W 001°14'0 0.0
2016-Apr-26 05:33N 46°10' W 001°14'0 0.0
2016-Apr-26 04:30N 46°10' W 001°14'0 0.0
2016-Apr-26 03:33N 46°10' W 001°14'0 0.0
2016-Apr-26 02:33N 46°10' W 001°14'0 0.0
2016-Apr-26 01:33N 46°10' W 001°14'0 0.0
2016-Apr-26 00:30N 46°10' W 001°14'0 0.0
2016-Apr-25 23:33N 46°10' W 001°14'0 0.0
2016-Apr-25 22:33N 46°10' W 001°14'0 0.0
2016-Apr-25 21:33N 46°10' W 001°14'0 0.0
2016-Apr-25 20:33N 46°10' W 001°14'0 0.0
2016-Apr-25 19:33N 46°10' W 001°14'0 0.0
2016-Apr-25 18:33N 46°10' W 001°14'0 0.0
2016-Apr-25 17:33N 46°10' W 001°14'0 0.0
2016-Apr-25 16:33N 46°10' W 001°14'0 0.0
2016-Apr-25 15:30N 46°10' W 001°14'0 0.0
2016-Apr-25 14:33N 46°10' W 001°14'0 0.0
2016-Apr-25 13:30N 46°10' W 001°14'0 0.0
2016-Apr-25 12:30N 46°10' W 001°14'0 0.0
2016-Apr-25 11:33N 46°10' W 001°14'0 0.0
2016-Apr-25 10:33N 46°10' W 001°14'0 0.0
2016-Apr-25 09:33N 46°10' W 001°14'0 0.0
2016-Apr-25 08:33N 46°10' W 001°14'0 0.0
2016-Apr-25 07:33N 46°10' W 001°14'0 0.0
2016-Apr-25 06:33N 46°10' W 001°14'0 0.0
2016-Apr-25 05:33N 46°10' W 001°14'0 0.0
2016-Apr-25 04:33N 46°10' W 001°14'0 0.0
2016-Apr-25 03:33N 46°10' W 001°14'0 0.0
2016-Apr-25 02:33N 46°10' W 001°14'0 0.0
2016-Apr-25 01:30N 46°10' W 001°14'0 0.0
2016-Apr-25 00:30N 46°10' W 001°14'0 0.0
2016-Apr-24 23:33N 46°10' W 001°14'0 0.0
2016-Apr-24 22:33N 46°10' W 001°14'0 0.0
2016-Apr-24 21:33N 46°10' W 001°14'0 0.0
2016-Apr-24 20:33N 46°10' W 001°14'0 0.0
2016-Apr-24 19:33N 46°10' W 001°14'0 0.0
2016-Apr-24 18:33N 46°10' W 001°14'0 0.0
2016-Apr-24 17:33N 46°10' W 001°14'0 0.0
2016-Apr-24 16:33N 46°10' W 001°14'0 0.0
2016-Apr-24 15:33N 46°10' W 001°14'0 0.0
2016-Apr-24 14:33N 46°10' W 001°14'0 0.0
2016-Apr-24 13:33N 46°10' W 001°14'0 0.0
2016-Apr-24 12:33N 46°10' W 001°14'0 0.0
2016-Apr-24 11:33N 46°10' W 001°14'0 0.0
2016-Apr-24 10:33N 46°10' W 001°14'0 0.0
2016-Apr-24 09:33N 46°10' W 001°14'0 0.0
2016-Apr-24 08:33N 46°10' W 001°14'0 0.0
2016-Apr-24 07:33N 46°10' W 001°14'0 0.0
2016-Apr-24 06:33N 46°10' W 001°14'0 0.0
2016-Apr-24 05:33N 46°10' W 001°14'0 0.0
2016-Apr-24 04:33N 46°10' W 001°14'0 0.0
2016-Apr-24 03:33N 46°10' W 001°14'0 0.0
2016-Apr-24 02:33N 46°10' W 001°14'0 0.0
2016-Apr-24 01:33N 46°10' W 001°14'0 0.0
2016-Apr-24 00:33N 46°10' W 001°14'0 0.0
2016-Apr-23 23:33N 46°10' W 001°14'0 0.0
2016-Apr-23 22:30N 46°10' W 001°14'0 0.0
2016-Apr-23 21:33N 46°10' W 001°14'0 0.0
2016-Apr-23 20:33N 46°10' W 001°14'0 0.0
2016-Apr-23 19:33N 46°10' W 001°14'0 0.0
2016-Apr-23 18:33N 46°10' W 001°14'0 0.0
2016-Apr-23 17:33N 46°10' W 001°14'0 0.0
2016-Apr-23 16:33N 46°10' W 001°14'0 0.0
2016-Apr-23 15:33N 46°10' W 001°14'0 0.0
2016-Apr-23 14:33N 46°10' W 001°14'0 0.0
2016-Apr-23 13:33N 46°10' W 001°14'0 0.0
2016-Apr-23 12:33N 46°10' W 001°14'0 0.0
2016-Apr-23 11:33N 46°10' W 001°14'0 0.0
2016-Apr-23 10:33N 46°10' W 001°14'0 0.0
2016-Apr-23 09:33N 46°10' W 001°14'0 0.0
2016-Apr-23 08:33N 46°10' W 001°14'0 0.0
2016-Apr-23 07:33N 46°10' W 001°14'0 0.0
2016-Apr-23 06:33N 46°10' W 001°14'0 0.0
2016-Apr-23 05:30N 46°10' W 001°14'0 0.0
2016-Apr-23 04:33N 46°10' W 001°14'0 0.0
2016-Apr-23 03:33N 46°10' W 001°14'0 0.0
2016-Apr-23 02:33N 46°10' W 001°14'0 0.0
2016-Apr-23 01:33N 46°10' W 001°14'0 0.0
2016-Apr-23 00:33N 46°10' W 001°14'0 0.0
2016-Apr-22 23:33N 46°10' W 001°14'0 0.0
2016-Apr-22 22:33N 46°10' W 001°14'0 0.0
2016-Apr-22 21:33N 46°10' W 001°14'0 0.0
2016-Apr-22 20:33N 46°10' W 001°14'0 0.0
2016-Apr-22 19:30N 46°10' W 001°14'0 0.0
2016-Apr-22 18:33N 46°10' W 001°14'0 0.0
2016-Apr-22 17:33N 46°10' W 001°14'0 0.0
2016-Apr-22 16:33N 46°10' W 001°14'0 0.0
2016-Apr-22 15:33N 46°10' W 001°14'0 0.0
2016-Apr-22 14:30N 46°10' W 001°14'0 0.0
2016-Apr-22 13:30N 46°10' W 001°14'0 0.0
2016-Apr-22 12:30N 46°10' W 001°14'0 0.0
2016-Apr-22 11:33N 46°10' W 001°14'0 0.0
2016-Apr-22 10:33N 46°10' W 001°14'0 0.0
2016-Apr-22 09:33N 46°10' W 001°14'0 0.0
2016-Apr-22 08:33N 46°10' W 001°14'0 0.0
2016-Apr-22 07:33N 46°10' W 001°14'0 0.0
2016-Apr-22 06:33N 46°10' W 001°14'0 0.0
2016-Apr-22 05:33N 46°10' W 001°14'0 0.0
2016-Apr-22 04:33N 46°10' W 001°14'0 0.0
2016-Apr-22 03:33N 46°10' W 001°14'0 0.0
2016-Apr-22 02:33N 46°10' W 001°14'0 0.0
2016-Apr-22 01:33N 46°10' W 001°14'0 0.0
2016-Apr-22 00:21N 46°10' W 001°14'0 0.0
2016-Apr-21 23:33N 46°10' W 001°14'0 0.0
2016-Apr-21 22:33N 46°10' W 001°14'0 0.0
2016-Apr-21 21:30N 46°10' W 001°14'0 0.0
2016-Apr-21 20:33N 46°10' W 001°14'0 0.0
2016-Apr-21 19:33N 46°10' W 001°14'0 0.0
2016-Apr-21 18:33N 46°10' W 001°14'0 0.0
2016-Apr-21 17:33N 46°10' W 001°14'0 0.0
2016-Apr-21 16:33N 46°10' W 001°14'0 0.0
2016-Apr-21 15:33N 46°10' W 001°14'0 0.0
2016-Apr-21 14:33N 46°10' W 001°14'0 0.0
2016-Apr-21 13:33N 46°10' W 001°14'0 0.0
2016-Apr-21 12:29N 46°10' W 001°14'0 0.0
2016-Apr-21 11:33N 46°10' W 001°14'0 0.0
2016-Apr-21 10:33N 46°10' W 001°14'0 0.0
2016-Apr-21 09:33N 46°10' W 001°14'  
Track history (hours):
 
Tides and Currents Weather Stations Pressure Air Temp Water Temp Dewpoint Dewpoint Depression Visibility Wind Speed Wind Dir Waves Ship Positions

Jawor

Last reported at 2016-May-01 08:33 UTC. Time now 2016-May-03 16:24 UTC.
Position N 36°02' W 005°14'.

Length 229 m; draft 12.8 m.

Type: Cargo ship. MMSI: 311034100.

Date/timePositionNaut miles runAvg speedWind from/ knotsBaromVisibWave heightAir tempDewpointWater temp
2016-May-01 08:33N 36°02' W 005°14'9 8.7
2016-May-01 07:30N 36°08' W 005°22'0 0.1
2016-May-01 06:11N 36°07' W 005°23'0 0.0
2016-May-01 04:26N 36°07' W 005°22'0 0.1
2016-May-01 02:29N 36°07' W 005°22'4 0.9
2016-Apr-30 21:32N 36°03' W 005°20'8 8.6
2016-Apr-30 20:33N 35°58' W 005°28'22510.5
2016-Apr-29 23:04N 37°30' W 009°45'611.7
2016-Apr-29 22:33N 37°36' W 009°46'1211.9
2016-Apr-29 21:33N 37°48' W 009°49'1211.8
2016-Apr-29 20:33N 37°59' W 009°53'1211.8
2016-Apr-29 19:33N 38°11' W 009°56'1211.5
2016-Apr-29 18:31N 38°22' W 010°00'1211.8
2016-Apr-29 17:33N 38°33' W 010°04'1211.9
2016-Apr-29 16:33N 38°45' W 010°07'1211.8
2016-Apr-29 15:32N 38°57' W 010°06'1111.5
2016-Apr-29 14:33N 39°08' W 010°06'  
2016-Apr-27 06:33N 46°06' W 001°52'1110.8
2016-Apr-27 05:33N 46°07' W 001°36'1110.5
2016-Apr-27 04:33N 46°06' W 001°21'6 5.7
2016-Apr-27 03:33N 46°09' W 001°14'1 0.5
2016-Apr-27 02:33N 46°10' W 001°14'0 0.0
2016-Apr-27 01:33N 46°10' W 001°14'0 0.0
2016-Apr-27 00:24N 46°10' W 001°14'0 0.0
2016-Apr-26 23:33N 46°10' W 001°14'0 0.0
2016-Apr-26 22:33N 46°10' W 001°14'0 0.0
2016-Apr-26 21:33N 46°10' W 001°14'0 0.0
2016-Apr-26 20:30N 46°10' W 001°14'0 0.0
2016-Apr-26 19:33N 46°10' W 001°14'0 0.0
2016-Apr-26 18:33N 46°10' W 001°14'0 0.0
2016-Apr-26 17:33N 46°10' W 001°14'0 0.0
2016-Apr-26 16:33N 46°10' W 001°14'0 0.0
2016-Apr-26 15:33N 46°10' W 001°14'0 0.0
2016-Apr-26 14:33N 46°10' W 001°14'0 0.0
2016-Apr-26 13:33N 46°10' W 001°14'0 0.0
2016-Apr-26 12:33N 46°10' W 001°14'0 0.0
2016-Apr-26 11:33N 46°10' W 001°14'0 0.0
2016-Apr-26 10:33N 46°10' W 001°14'0 0.0
2016-Apr-26 09:33N 46°10' W 001°14'0 0.0
2016-Apr-26 08:33N 46°10' W 001°14'0 0.0
2016-Apr-26 07:33N 46°10' W 001°14'0 0.0
2016-Apr-26 06:33N 46°10' W 001°14'0 0.0
2016-Apr-26 05:33N 46°10' W 001°14'0 0.0
2016-Apr-26 04:30N 46°10' W 001°14'0 0.0
2016-Apr-26 03:33N 46°10' W 001°14'0 0.0
2016-Apr-26 02:33N 46°10' W 001°14'0 0.0
2016-Apr-26 01:33N 46°10' W 001°14'0 0.0
2016-Apr-26 00:30N 46°10' W 001°14'0 0.0
2016-Apr-25 23:33N 46°10' W 001°14'0 0.0
2016-Apr-25 22:33N 46°10' W 001°14'0 0.0
2016-Apr-25 21:33N 46°10' W 001°14'0 0.0
2016-Apr-25 20:33N 46°10' W 001°14'0 0.0
2016-Apr-25 19:33N 46°10' W 001°14'0 0.0
2016-Apr-25 18:33N 46°10' W 001°14'0 0.0
2016-Apr-25 17:33N 46°10' W 001°14'0 0.0
2016-Apr-25 16:33N 46°10' W 001°14'0 0.0
2016-Apr-25 15:30N 46°10' W 001°14'0 0.0
2016-Apr-25 14:33N 46°10' W 001°14'0 0.0
2016-Apr-25 13:30N 46°10' W 001°14'0 0.0
2016-Apr-25 12:30N 46°10' W 001°14'0 0.0
2016-Apr-25 11:33N 46°10' W 001°14'0 0.0
2016-Apr-25 10:33N 46°10' W 001°14'0 0.0
2016-Apr-25 09:33N 46°10' W 001°14'0 0.0
2016-Apr-25 08:33N 46°10' W 001°14'0 0.0
2016-Apr-25 07:33N 46°10' W 001°14'0 0.0
2016-Apr-25 06:33N 46°10' W 001°14'0 0.0
2016-Apr-25 05:33N 46°10' W 001°14'0 0.0
2016-Apr-25 04:33N 46°10' W 001°14'0 0.0
2016-Apr-25 03:33N 46°10' W 001°14'0 0.0
2016-Apr-25 02:33N 46°10' W 001°14'0 0.0
2016-Apr-25 01:30N 46°10' W 001°14'0 0.0
2016-Apr-25 00:30N 46°10' W 001°14'0 0.0
2016-Apr-24 23:33N 46°10' W 001°14'0 0.0
2016-Apr-24 22:33N 46°10' W 001°14'0 0.0
2016-Apr-24 21:33N 46°10' W 001°14'0 0.0
2016-Apr-24 20:33N 46°10' W 001°14'0 0.0
2016-Apr-24 19:33N 46°10' W 001°14'0 0.0
2016-Apr-24 18:33N 46°10' W 001°14'0 0.0
2016-Apr-24 17:33N 46°10' W 001°14'0 0.0
2016-Apr-24 16:33N 46°10' W 001°14'0 0.0
2016-Apr-24 15:33N 46°10' W 001°14'0 0.0
2016-Apr-24 14:33N 46°10' W 001°14'0 0.0
2016-Apr-24 13:33N 46°10' W 001°14'0 0.0
2016-Apr-24 12:33N 46°10' W 001°14'0 0.0
2016-Apr-24 11:33N 46°10' W 001°14'0 0.0
2016-Apr-24 10:33N 46°10' W 001°14'0 0.0
2016-Apr-24 09:33N 46°10' W 001°14'0 0.0
2016-Apr-24 08:33N 46°10' W 001°14'0 0.0
2016-Apr-24 07:33N 46°10' W 001°14'0 0.0
2016-Apr-24 06:33N 46°10' W 001°14'0 0.0
2016-Apr-24 05:33N 46°10' W 001°14'0 0.0
2016-Apr-24 04:33N 46°10' W 001°14'0 0.0
2016-Apr-24 03:33N 46°10' W 001°14'0 0.0
2016-Apr-24 02:33N 46°10' W 001°14'0 0.0
2016-Apr-24 01:33N 46°10' W 001°14'0 0.0
2016-Apr-24 00:33N 46°10' W 001°14'0 0.0
2016-Apr-23 23:33N 46°10' W 001°14'0 0.0
2016-Apr-23 22:30N 46°10' W 001°14'0 0.0
2016-Apr-23 21:33N 46°10' W 001°14'0 0.0
2016-Apr-23 20:33N 46°10' W 001°14'0 0.0
2016-Apr-23 19:33N 46°10' W 001°14'0 0.0
2016-Apr-23 18:33N 46°10' W 001°14'0 0.0
2016-Apr-23 17:33N 46°10' W 001°14'0 0.0
2016-Apr-23 16:33N 46°10' W 001°14'0 0.0
2016-Apr-23 15:33N 46°10' W 001°14'0 0.0
2016-Apr-23 14:33N 46°10' W 001°14'0 0.0
2016-Apr-23 13:33N 46°10' W 001°14'0 0.0
2016-Apr-23 12:33N 46°10' W 001°14'0 0.0
2016-Apr-23 11:33N 46°10' W 001°14'0 0.0
2016-Apr-23 10:33N 46°10' W 001°14'0 0.0
2016-Apr-23 09:33N 46°10' W 001°14'0 0.0
2016-Apr-23 08:33N 46°10' W 001°14'0 0.0
2016-Apr-23 07:33N 46°10' W 001°14'0 0.0
2016-Apr-23 06:33N 46°10' W 001°14'0 0.0
2016-Apr-23 05:30N 46°10' W 001°14'0 0.0
2016-Apr-23 04:33N 46°10' W 001°14'0 0.0
2016-Apr-23 03:33N 46°10' W 001°14'0 0.0
2016-Apr-23 02:33N 46°10' W 001°14'0 0.0
2016-Apr-23 01:33N 46°10' W 001°14'0 0.0
2016-Apr-23 00:33N 46°10' W 001°14'0 0.0
2016-Apr-22 23:33N 46°10' W 001°14'0 0.0
2016-Apr-22 22:33N 46°10' W 001°14'0 0.0
2016-Apr-22 21:33N 46°10' W 001°14'0 0.0
2016-Apr-22 20:33N 46°10' W 001°14'0 0.0
2016-Apr-22 19:30N 46°10' W 001°14'0 0.0
2016-Apr-22 18:33N 46°10' W 001°14'0 0.0
2016-Apr-22 17:33N 46°10' W 001°14'0 0.0
2016-Apr-22 16:33N 46°10' W 001°14'0 0.0
2016-Apr-22 15:33N 46°10' W 001°14'0 0.0
2016-Apr-22 14:30N 46°10' W 001°14'0 0.0
2016-Apr-22 13:30N 46°10' W 001°14'0 0.0
2016-Apr-22 12:30N 46°10' W 001°14'0 0.0
2016-Apr-22 11:33N 46°10' W 001°14'0 0.0
2016-Apr-22 10:33N 46°10' W 001°14'0 0.0
2016-Apr-22 09:33N 46°10' W 001°14'0 0.0
2016-Apr-22 08:33N 46°10' W 001°14'0 0.0
2016-Apr-22 07:33N 46°10' W 001°14'0 0.0
2016-Apr-22 06:33N 46°10' W 001°14'0 0.0
2016-Apr-22 05:33N 46°10' W 001°14'0 0.0
2016-Apr-22 04:33N 46°10' W 001°14'0 0.0
2016-Apr-22 03:33N 46°10' W 001°14'0 0.0
2016-Apr-22 02:33N 46°10' W 001°14'0 0.0
2016-Apr-22 01:33N 46°10' W 001°14'0 0.0
2016-Apr-22 00:21N 46°10' W 001°14'0 0.0
2016-Apr-21 23:33N 46°10' W 001°14'0 0.0
2016-Apr-21 22:33N 46°10' W 001°14'0 0.0
2016-Apr-21 21:30N 46°10' W 001°14'0 0.0
2016-Apr-21 20:33N 46°10' W 001°14'0 0.0
2016-Apr-21 19:33N 46°10' W 001°14'0 0.0
2016-Apr-21 18:33N 46°10' W 001°14'0 0.0
2016-Apr-21 17:33N 46°10' W 001°14'0 0.0
2016-Apr-21 16:33N 46°10' W 001°14'0 0.0
2016-Apr-21 15:33N 46°10' W 001°14'0 0.0
2016-Apr-21 14:33N 46°10' W 001°14'0 0.0
2016-Apr-21 13:33N 46°10' W 001°14'0 0.0
2016-Apr-21 12:29N 46°10' W 001°14'0 0.0
2016-Apr-21 11:33N 46°10' W 001°14'0 0.0
2016-Apr-21 10:33N 46°10' W 001°14'0 0.0
2016-Apr-21 09:33N 46°10' W 001°14'  

Dump ship's entire track history